sensor_id;sensor_type;location;lat;lon;timestamp;pressure;altitude;pressure_sealevel;temperature;humidity
30302;BME280;17111;52.130;5.028;2023-11-21T00:01:03;101166.03;;;17.47;57.63
30302;BME280;17111;52.130;5.028;2023-11-21T00:03:31;101168.72;;;17.47;57.98
30302;BME280;17111;52.130;5.028;2023-11-21T00:05:58;101166.19;;;17.45;58.03
30302;BME280;17111;52.130;5.028;2023-11-21T00:08:24;101178.59;;;17.46;57.64
30302;BME280;17111;52.130;5.028;2023-11-21T00:10:51;101177.88;;;17.44;57.56
30302;BME280;17111;52.130;5.028;2023-11-21T00:13:18;101174.34;;;17.44;58.01
30302;BME280;17111;52.130;5.028;2023-11-21T00:15:45;101179.69;;;17.44;58.12
30302;BME280;17111;52.130;5.028;2023-11-21T00:18:11;101178.03;;;17.43;58.06
30302;BME280;17111;52.130;5.028;2023-11-21T00:20:38;101192.41;;;17.42;57.79
30302;BME280;17111;52.130;5.028;2023-11-21T00:23:04;101196.94;;;17.41;57.88
30302;BME280;17111;52.130;5.028;2023-11-21T00:25:31;101190.72;;;17.41;57.91
30302;BME280;17111;52.130;5.028;2023-11-21T00:27:58;101191.69;;;17.40;57.77
30302;BME280;17111;52.130;5.028;2023-11-21T00:30:25;101189.84;;;17.40;57.72
30302;BME280;17111;52.130;5.028;2023-11-21T00:32:52;101194.38;;;17.40;57.89
30302;BME280;17111;52.130;5.028;2023-11-21T00:35:19;101194.53;;;17.38;57.75
30302;BME280;17111;52.130;5.028;2023-11-21T00:37:46;101187.31;;;17.39;57.65
30302;BME280;17111;52.130;5.028;2023-11-21T00:40:12;101191.00;;;17.38;57.58
30302;BME280;17111;52.130;5.028;2023-11-21T00:42:41;101191.00;;;17.38;57.67
30302;BME280;17111;52.130;5.028;2023-11-21T00:45:08;101199.16;;;17.36;57.72
30302;BME280;17111;52.130;5.028;2023-11-21T00:47:35;101197.34;;;17.37;57.88
30302;BME280;17111;52.130;5.028;2023-11-21T00:50:02;101189.31;;;17.37;57.66
30302;BME280;17111;52.130;5.028;2023-11-21T00:52:28;101188.59;;;17.35;57.64
30302;BME280;17111;52.130;5.028;2023-11-21T00:54:55;101203.69;;;17.36;57.64
30302;BME280;17111;52.130;5.028;2023-11-21T00:57:22;101197.47;;;17.35;57.76
30302;BME280;17111;52.130;5.028;2023-11-21T00:59:48;101198.31;;;17.36;57.76
30302;BME280;17111;52.130;5.028;2023-11-21T01:02:15;101195.78;;;17.34;57.76
30302;BME280;17111;52.130;5.028;2023-11-21T01:04:41;101207.34;;;17.35;57.82
30302;BME280;17111;52.130;5.028;2023-11-21T01:07:08;101201.16;;;17.34;57.72
30302;BME280;17111;52.130;5.028;2023-11-21T01:09:35;101205.66;;;17.34;57.46
30302;BME280;17111;52.130;5.028;2023-11-21T01:12:02;101212.88;;;17.33;57.87
30302;BME280;17111;52.130;5.028;2023-11-21T01:14:29;101212.88;;;17.33;57.80
30302;BME280;17111;52.130;5.028;2023-11-21T01:16:55;101217.38;;;17.33;57.78
30302;BME280;17111;52.130;5.028;2023-11-21T01:19:22;101212.03;;;17.33;57.62
30302;BME280;17111;52.130;5.028;2023-11-21T01:21:49;101210.47;;;17.30;57.87
30302;BME280;17111;52.130;5.028;2023-11-21T01:24:15;101214.69;;;17.33;57.59
30302;BME280;17111;52.130;5.028;2023-11-21T01:26:42;101220.19;;;17.31;57.94
30302;BME280;17111;52.130;5.028;2023-11-21T01:29:08;101216.50;;;17.32;57.53
30302;BME280;17111;52.130;5.028;2023-11-21T01:31:35;101225.53;;;17.31;57.54
30302;BME280;17111;52.130;5.028;2023-11-21T01:34:02;101225.53;;;17.31;57.69
30302;BME280;17111;52.130;5.028;2023-11-21T01:36:32;101229.06;;;17.32;57.79
30302;BME280;17111;52.130;5.028;2023-11-21T01:38:59;101230.78;;;17.33;57.69
30302;BME280;17111;52.130;5.028;2023-11-21T01:41:27;101232.59;;;17.32;57.71
30302;BME280;17111;52.130;5.028;2023-11-21T01:43:55;101239.78;;;17.32;57.91
30302;BME280;17111;52.130;5.028;2023-11-21T01:46:23;101244.16;;;17.33;57.62
30302;BME280;17111;52.130;5.028;2023-11-21T01:48:52;101241.50;;;17.33;57.48
30302;BME280;17111;52.130;5.028;2023-11-21T01:51:19;101241.50;;;17.33;57.66
30302;BME280;17111;52.130;5.028;2023-11-21T01:53:46;101252.22;;;17.33;57.67
30302;BME280;17111;52.130;5.028;2023-11-21T01:56:13;101258.41;;;17.33;57.88
30302;BME280;17111;52.130;5.028;2023-11-21T01:58:40;101257.56;;;17.33;57.77
30302;BME280;17111;52.130;5.028;2023-11-21T02:01:08;101262.94;;;17.33;57.89
30302;BME280;17111;52.130;5.028;2023-11-21T02:03:36;101258.41;;;17.33;57.07
30302;BME280;17111;52.130;5.028;2023-11-21T02:06:03;101262.06;;;17.32;58.11
30302;BME280;17111;52.130;5.028;2023-11-21T02:08:29;101262.94;;;17.33;58.43
30302;BME280;17111;52.130;5.028;2023-11-21T02:10:56;101274.47;;;17.33;57.73
30302;BME280;17111;52.130;5.028;2023-11-21T02:13:24;101274.47;;;17.33;57.74
30302;BME280;17111;52.130;5.028;2023-11-21T02:15:50;101278.00;;;17.34;57.83
30302;BME280;17111;52.130;5.028;2023-11-21T02:18:18;101274.47;;;17.33;57.91
30302;BME280;17111;52.130;5.028;2023-11-21T02:20:45;101279.84;;;17.33;57.53
30302;BME280;17111;52.130;5.028;2023-11-21T02:23:13;101279.84;;;17.33;57.71
30302;BME280;17111;52.130;5.028;2023-11-21T02:25:41;101279.00;;;17.33;57.97
30302;BME280;17111;52.130;5.028;2023-11-21T02:28:09;101279.84;;;17.33;57.50
30302;BME280;17111;52.130;5.028;2023-11-21T02:30:39;101289.72;;;17.33;57.48
30302;BME280;17111;52.130;5.028;2023-11-21T02:33:06;101289.56;;;17.34;57.72
30302;BME280;17111;52.130;5.028;2023-11-21T02:35:33;101287.03;;;17.33;57.86
30302;BME280;17111;52.130;5.028;2023-11-21T02:38:01;101294.09;;;17.34;57.79
30302;BME280;17111;52.130;5.028;2023-11-21T02:40:29;101288.72;;;17.34;57.76
30302;BME280;17111;52.130;5.028;2023-11-21T02:42:56;101287.72;;;17.35;57.70
30302;BME280;17111;52.130;5.028;2023-11-21T02:45:25;101286.88;;;17.34;57.60
30302;BME280;17111;52.130;5.028;2023-11-21T02:47:52;101294.09;;;17.34;57.47
30302;BME280;17111;52.130;5.028;2023-11-21T02:50:24;101294.94;;;17.34;57.83
30302;BME280;17111;52.130;5.028;2023-11-21T02:52:50;101291.41;;;17.34;57.98
30302;BME280;17111;52.130;5.028;2023-11-21T02:55:17;101291.41;;;17.34;57.36
30302;BME280;17111;52.130;5.028;2023-11-21T02:57:44;101284.34;;;17.33;57.70
30302;BME280;17111;52.130;5.028;2023-11-21T03:00:11;101283.47;;;17.32;57.52
30302;BME280;17111;52.130;5.028;2023-11-21T03:02:40;101280.94;;;17.31;57.17
30302;BME280;17111;52.130;5.028;2023-11-21T03:05:07;101287.03;;;17.33;57.80
30302;BME280;17111;52.130;5.028;2023-11-21T03:07:39;101287.03;;;17.33;57.52
30302;BME280;17111;52.130;5.028;2023-11-21T03:10:07;101286.16;;;17.32;57.72
30302;BME280;17111;52.130;5.028;2023-11-21T03:12:37;101283.63;;;17.31;57.70
30302;BME280;17111;52.130;5.028;2023-11-21T03:15:05;101294.50;;;17.29;57.27
30302;BME280;17111;52.130;5.028;2023-11-21T03:17:32;101294.34;;;17.31;57.12
30302;BME280;17111;52.130;5.028;2023-11-21T03:20:00;101294.34;;;17.31;57.59
30302;BME280;17111;52.130;5.028;2023-11-21T03:22:27;101296.31;;;17.28;57.66
30302;BME280;17111;52.130;5.028;2023-11-21T03:24:54;101304.22;;;17.30;57.50
30302;BME280;17111;52.130;5.028;2023-11-21T03:27:20;101299.72;;;17.31;57.46
30302;BME280;17111;52.130;5.028;2023-11-21T03:29:48;101305.91;;;17.31;57.80
30302;BME280;17111;52.130;5.028;2023-11-21T03:32:15;101301.53;;;17.30;57.94
30302;BME280;17111;52.130;5.028;2023-11-21T03:34:57;101310.69;;;17.27;57.70
30302;BME280;17111;52.130;5.028;2023-11-21T03:37:25;101306.91;;;17.30;57.94
30302;BME280;17111;52.130;5.028;2023-11-21T03:39:55;101319.31;;;17.31;57.52
30302;BME280;17111;52.130;5.028;2023-11-21T03:42:22;101313.09;;;17.31;57.42
30302;BME280;17111;52.130;5.028;2023-11-21T03:44:49;101311.53;;;17.28;57.48
30302;BME280;17111;52.130;5.028;2023-11-21T03:47:15;101307.91;;;17.29;57.45
30302;BME280;17111;52.130;5.028;2023-11-21T03:49:42;101316.91;;;17.28;57.60
30302;BME280;17111;52.130;5.028;2023-11-21T03:52:08;101314.22;;;17.28;57.68
30302;BME280;17111;52.130;5.028;2023-11-21T03:54:35;101315.06;;;17.28;57.37
30302;BME280;17111;52.130;5.028;2023-11-21T03:57:03;101319.56;;;17.28;57.66
30302;BME280;17111;52.130;5.028;2023-11-21T03:59:29;101321.41;;;17.27;57.61
30302;BME280;17111;52.130;5.028;2023-11-21T04:01:56;101330.28;;;17.28;57.82
30302;BME280;17111;52.130;5.028;2023-11-21T04:04:23;101341.16;;;17.26;57.38
30302;BME280;17111;52.130;5.028;2023-11-21T04:06:50;101332.13;;;17.27;57.61
30302;BME280;17111;52.130;5.028;2023-11-21T04:09:18;101334.81;;;17.27;57.26
30302;BME280;17111;52.130;5.028;2023-11-21T04:11:45;101341.16;;;17.26;57.46
30302;BME280;17111;52.130;5.028;2023-11-21T04:14:12;101349.19;;;17.26;58.00
30302;BME280;17111;52.130;5.028;2023-11-21T04:16:38;101344.69;;;17.27;57.68
30302;BME280;17111;52.130;5.028;2023-11-21T04:19:05;101349.19;;;17.26;57.89
30302;BME280;17111;52.130;5.028;2023-11-21T04:21:32;101350.03;;;17.27;57.71
30302;BME280;17111;52.130;5.028;2023-11-21T04:23:59;101353.72;;;17.26;57.65
30302;BME280;17111;52.130;5.028;2023-11-21T04:26:26;101363.59;;;17.25;57.63
30302;BME280;17111;52.130;5.028;2023-11-21T04:28:52;101366.09;;;17.27;57.61
30302;BME280;17111;52.130;5.028;2023-11-21T04:31:19;101362.59;;;17.26;57.50
30302;BME280;17111;52.130;5.028;2023-11-21T04:33:46;101375.13;;;17.26;57.59
30302;BME280;17111;52.130;5.028;2023-11-21T04:36:12;101382.34;;;17.25;57.58
30302;BME280;17111;52.130;5.028;2023-11-21T04:38:39;101384.88;;;17.27;57.59
30302;BME280;17111;52.130;5.028;2023-11-21T04:41:09;101387.53;;;17.27;57.65
30302;BME280;17111;52.130;5.028;2023-11-21T04:43:35;101389.38;;;17.26;57.50
30302;BME280;17111;52.130;5.028;2023-11-21T04:46:02;101387.53;;;17.27;57.64
30302;BME280;17111;52.130;5.028;2023-11-21T04:48:29;101382.19;;;17.27;57.57
30302;BME280;17111;52.130;5.028;2023-11-21T04:50:55;101385.84;;;17.26;57.57
30302;BME280;17111;52.130;5.028;2023-11-21T04:53:22;101375.97;;;17.26;57.80
30302;BME280;17111;52.130;5.028;2023-11-21T04:55:49;101390.22;;;17.27;57.70
30302;BME280;17111;52.130;5.028;2023-11-21T04:58:15;101392.06;;;17.26;57.76
30302;BME280;17111;52.130;5.028;2023-11-21T05:00:42;101394.72;;;17.26;57.88
30302;BME280;17111;52.130;5.028;2023-11-21T05:03:09;101402.78;;;17.26;57.71
30302;BME280;17111;52.130;5.028;2023-11-21T05:05:36;101397.41;;;17.26;58.03
30302;BME280;17111;52.130;5.028;2023-11-21T05:08:03;101395.72;;;17.25;57.87
30302;BME280;17111;52.130;5.028;2023-11-21T05:10:30;101403.75;;;17.25;57.87
30302;BME280;17111;52.130;5.028;2023-11-21T05:12:57;101404.59;;;17.26;58.46
30302;BME280;17111;52.130;5.028;2023-11-21T05:15:24;101406.44;;;17.25;57.76
30302;BME280;17111;52.130;5.028;2023-11-21T05:17:51;101409.13;;;17.25;58.02
30302;BME280;17111;52.130;5.028;2023-11-21T05:20:18;101419.84;;;17.25;57.70
30302;BME280;17111;52.130;5.028;2023-11-21T05:22:48;101410.06;;;17.24;57.81
30302;BME280;17111;52.130;5.028;2023-11-21T05:25:15;101415.31;;;17.26;57.76
30302;BME280;17111;52.130;5.028;2023-11-21T05:27:47;101411.81;;;17.25;57.99
30302;BME280;17111;52.130;5.028;2023-11-21T05:30:14;101417.16;;;17.25;58.03
30302;BME280;17111;52.130;5.028;2023-11-21T05:32:41;101422.50;;;17.25;57.91
30302;BME280;17111;52.130;5.028;2023-11-21T05:35:11;101427.03;;;17.25;57.93
30302;BME280;17111;52.130;5.028;2023-11-21T05:37:44;101433.22;;;17.25;57.93
30302;BME280;17111;52.130;5.028;2023-11-21T05:40:12;101437.75;;;17.25;58.15
30302;BME280;17111;52.130;5.028;2023-11-21T05:42:40;101441.28;;;17.25;57.99
30302;BME280;17111;52.130;5.028;2023-11-21T05:45:07;101445.78;;;17.25;57.93
30302;BME280;17111;52.130;5.028;2023-11-21T05:47:45;101456.63;;;17.23;58.11
30302;BME280;17111;52.130;5.028;2023-11-21T05:50:14;101450.25;;;17.24;57.75
30302;BME280;17111;52.130;5.028;2023-11-21T05:52:43;101457.34;;;17.25;57.89
30302;BME280;17111;52.130;5.028;2023-11-21T05:55:10;101451.13;;;17.25;57.93
30302;BME280;17111;52.130;5.028;2023-11-21T05:57:38;101453.81;;;17.25;58.17
30302;BME280;17111;52.130;5.028;2023-11-21T06:00:07;101459.19;;;17.25;58.13
30302;BME280;17111;52.130;5.028;2023-11-21T06:02:39;101466.34;;;17.24;57.95
30302;BME280;17111;52.130;5.028;2023-11-21T06:05:07;101476.22;;;17.24;58.21
30302;BME280;17111;52.130;5.028;2023-11-21T06:07:34;101482.41;;;17.24;58.18
30302;BME280;17111;52.130;5.028;2023-11-21T06:10:03;101492.28;;;17.24;58.20
30302;BME280;17111;52.130;5.028;2023-11-21T06:12:32;101495.81;;;17.24;57.63
30302;BME280;17111;52.130;5.028;2023-11-21T06:15:03;101499.47;;;17.23;57.96
30302;BME280;17111;52.130;5.028;2023-11-21T06:17:31;101505.69;;;17.24;57.70
30302;BME280;17111;52.130;5.028;2023-11-21T06:19:58;101497.78;;;17.22;58.51
30302;BME280;17111;52.130;5.028;2023-11-21T06:22:25;101497.78;;;17.22;57.86
30302;BME280;17111;52.130;5.028;2023-11-21T06:24:52;101495.09;;;17.22;58.06
30302;BME280;17111;52.130;5.028;2023-11-21T06:27:18;101487.06;;;17.22;58.34
30302;BME280;17111;52.130;5.028;2023-11-21T06:29:45;101487.91;;;17.23;58.16
30302;BME280;17111;52.130;5.028;2023-11-21T06:32:11;101495.94;;;17.23;57.92
30302;BME280;17111;52.130;5.028;2023-11-21T06:34:39;101501.31;;;17.23;58.25
30302;BME280;17111;52.130;5.028;2023-11-21T06:37:05;101507.66;;;17.22;58.26
30302;BME280;17111;52.130;5.028;2023-11-21T06:39:32;101502.31;;;17.22;57.85
30302;BME280;17111;52.130;5.028;2023-11-21T06:41:59;101507.66;;;17.22;58.39
30302;BME280;17111;52.130;5.028;2023-11-21T06:44:26;101517.38;;;17.23;58.05
30302;BME280;17111;52.130;5.028;2023-11-21T06:46:53;101516.53;;;17.22;58.50
30302;BME280;17111;52.130;5.028;2023-11-21T06:49:20;101524.56;;;17.22;58.12
30302;BME280;17111;52.130;5.028;2023-11-21T06:51:46;101523.59;;;17.23;58.34
30302;BME280;17111;52.130;5.028;2023-11-21T06:54:13;101525.41;;;17.23;58.13
30302;BME280;17111;52.130;5.028;2023-11-21T06:56:40;101530.78;;;17.23;58.16
30302;BME280;17111;52.130;5.028;2023-11-21T06:59:07;101536.13;;;17.23;58.19
30302;BME280;17111;52.130;5.028;2023-11-21T07:01:35;101545.03;;;17.23;57.98
30302;BME280;17111;52.130;5.028;2023-11-21T07:04:05;101552.22;;;17.23;58.64
30302;BME280;17111;52.130;5.028;2023-11-21T07:06:33;101551.38;;;17.22;57.78
30302;BME280;17111;52.130;5.028;2023-11-21T07:08:59;101550.38;;;17.23;58.28
30302;BME280;17111;52.130;5.028;2023-11-21T07:11:27;101554.75;;;17.24;58.36
30302;BME280;17111;52.130;5.028;2023-11-21T07:13:54;101552.06;;;17.24;58.19
30302;BME280;17111;52.130;5.028;2023-11-21T07:16:20;101553.06;;;17.23;58.05
30302;BME280;17111;52.130;5.028;2023-11-21T07:18:48;101551.22;;;17.24;58.36
30302;BME280;17111;52.130;5.028;2023-11-21T07:21:15;101556.59;;;17.24;58.28
30302;BME280;17111;52.130;5.028;2023-11-21T07:23:42;101559.16;;;17.25;58.04
30302;BME280;17111;52.130;5.028;2023-11-21T07:26:09;101555.63;;;17.25;57.98
30302;BME280;17111;52.130;5.028;2023-11-21T07:28:37;101564.50;;;17.25;58.25
30302;BME280;17111;52.130;5.028;2023-11-21T07:31:04;101578.09;;;17.34;58.02
30302;BME280;17111;52.130;5.028;2023-11-21T07:33:30;101579.97;;;17.43;58.09
30302;BME280;17111;52.130;5.028;2023-11-21T07:35:57;101577.94;;;17.56;57.83
30302;BME280;17111;52.130;5.028;2023-11-21T07:38:24;101582.22;;;17.68;57.70
30302;BME280;17111;52.130;5.028;2023-11-21T07:40:50;101580.22;;;17.82;57.15
30302;BME280;17111;52.130;5.028;2023-11-21T07:43:17;101582.69;;;17.94;57.19
30302;BME280;17111;52.130;5.028;2023-11-21T07:45:46;101585.13;;;18.07;56.93
30302;BME280;17111;52.130;5.028;2023-11-21T07:48:12;101592.09;;;18.19;57.08
30302;BME280;17111;52.130;5.028;2023-11-21T07:50:39;101602.72;;;18.31;56.64
30302;BME280;17111;52.130;5.028;2023-11-21T07:53:06;101600.88;;;18.41;56.47
30302;BME280;17111;52.130;5.028;2023-11-21T07:55:32;101604.47;;;18.51;56.42
30302;BME280;17111;52.130;5.028;2023-11-21T07:57:59;101615.19;;;18.61;56.37
30302;BME280;17111;52.130;5.028;2023-11-21T08:00:26;101618.78;;;18.71;56.21
30302;BME280;17111;52.130;5.028;2023-11-21T08:02:56;101620.78;;;18.79;56.09
30302;BME280;17111;52.130;5.028;2023-11-21T08:05:23;101620.94;;;18.87;55.20
30302;BME280;17111;52.130;5.028;2023-11-21T08:08:02;101629.16;;;18.95;55.57
30302;BME280;17111;52.130;5.028;2023-11-21T08:10:29;101628.56;;;19.01;55.81
30302;BME280;17111;52.130;5.028;2023-11-21T08:12:56;101634.22;;;19.08;55.32
30302;BME280;17111;52.130;5.028;2023-11-21T08:15:23;101639.91;;;19.14;55.13
30302;BME280;17111;52.130;5.028;2023-11-21T08:17:50;101643.00;;;19.19;54.92
30302;BME280;17111;52.130;5.028;2023-11-21T08:20:16;101643.41;;;19.24;55.06
30302;BME280;17111;52.130;5.028;2023-11-21T08:22:45;101644.84;;;19.29;55.17
30302;BME280;17111;52.130;5.028;2023-11-21T08:25:12;101655.03;;;19.35;54.83
30302;BME280;17111;52.130;5.028;2023-11-21T08:27:39;101669.03;;;19.38;55.02
30302;BME280;17111;52.130;5.028;2023-11-21T08:30:06;101666.75;;;19.43;54.44
30302;BME280;17111;52.130;5.028;2023-11-21T08:32:33;101662.06;;;19.45;55.04
30302;BME280;17111;52.130;5.028;2023-11-21T08:35:00;101667.91;;;19.51;55.05
30302;BME280;17111;52.130;5.028;2023-11-21T08:37:28;101668.75;;;19.51;54.73
30302;BME280;17111;52.130;5.028;2023-11-21T08:39:58;101674.81;;;19.53;54.42
30302;BME280;17111;52.130;5.028;2023-11-21T08:42:26;101673.97;;;19.53;54.28
30302;BME280;17111;52.130;5.028;2023-11-21T08:44:56;101686.72;;;19.51;54.61
30302;BME280;17111;52.130;5.028;2023-11-21T08:47:24;101681.47;;;19.49;54.18
30302;BME280;17111;52.130;5.028;2023-11-21T08:49:51;101688.84;;;19.47;54.67
30302;BME280;17111;52.130;5.028;2023-11-21T08:52:20;101690.97;;;19.43;55.04
30302;BME280;17111;52.130;5.028;2023-11-21T08:54:49;101695.78;;;19.40;55.14
30302;BME280;17111;52.130;5.028;2023-11-21T08:57:23;101696.03;;;19.37;54.56
30302;BME280;17111;52.130;5.028;2023-11-21T08:59:49;101710.63;;;19.34;55.17
30302;BME280;17111;52.130;5.028;2023-11-21T09:02:22;101707.38;;;19.31;55.05
30302;BME280;17111;52.130;5.028;2023-11-21T09:04:51;101715.72;;;19.28;54.65
30302;BME280;17111;52.130;5.028;2023-11-21T09:07:19;101712.59;;;19.22;54.91
30302;BME280;17111;52.130;5.028;2023-11-21T09:09:47;101710.03;;;19.21;54.99
30302;BME280;17111;52.130;5.028;2023-11-21T09:12:14;101723.34;;;19.22;54.55
30302;BME280;17111;52.130;5.028;2023-11-21T09:14:42;101730.41;;;19.23;54.77
30302;BME280;17111;52.130;5.028;2023-11-21T09:17:10;101732.84;;;19.27;55.07
30302;BME280;17111;52.130;5.028;2023-11-21T09:19:40;101736.38;;;19.27;55.15
30302;BME280;17111;52.130;5.028;2023-11-21T09:22:07;101737.94;;;19.30;54.65
30302;BME280;17111;52.130;5.028;2023-11-21T09:24:34;101742.31;;;19.31;54.54
30302;BME280;17111;52.130;5.028;2023-11-21T09:27:03;101756.59;;;19.31;54.97
30302;BME280;17111;52.130;5.028;2023-11-21T09:29:31;101756.44;;;19.33;54.75
30302;BME280;17111;52.130;5.028;2023-11-21T09:31:58;101757.44;;;19.32;55.21
30302;BME280;17111;52.130;5.028;2023-11-21T09:34:28;101764.50;;;19.33;54.53
30302;BME280;17111;52.130;5.028;2023-11-21T09:36:54;101774.31;;;19.34;55.32
30302;BME280;17111;52.130;5.028;2023-11-21T09:39:21;101772.59;;;19.33;54.92
30302;BME280;17111;52.130;5.028;2023-11-21T09:41:52;101785.06;;;19.34;54.93
30302;BME280;17111;52.130;5.028;2023-11-21T09:44:32;101786.88;;;19.33;55.28
30302;BME280;17111;52.130;5.028;2023-11-21T09:47:01;101785.06;;;19.34;54.65
30302;BME280;17111;52.130;5.028;2023-11-21T09:49:28;101788.72;;;19.33;54.71
30302;BME280;17111;52.130;5.028;2023-11-21T09:51:55;101798.63;;;19.32;55.12
30302;BME280;17111;52.130;5.028;2023-11-21T09:54:25;101797.78;;;19.32;54.70
30302;BME280;17111;52.130;5.028;2023-11-21T09:56:53;101799.63;;;19.31;55.29
30302;BME280;17111;52.130;5.028;2023-11-21T09:59:20;101806.84;;;19.31;55.14
30302;BME280;17111;52.130;5.028;2023-11-21T10:01:47;101807.84;;;19.30;55.13
30302;BME280;17111;52.130;5.028;2023-11-21T10:04:14;101816.00;;;19.28;55.34
30302;BME280;17111;52.130;5.028;2023-11-21T10:06:41;101813.59;;;19.25;55.24
30302;BME280;17111;52.130;5.028;2023-11-21T10:09:12;101808.50;;;19.22;55.46
30302;BME280;17111;52.130;5.028;2023-11-21T10:11:41;101818.53;;;19.20;55.15
30302;BME280;17111;52.130;5.028;2023-11-21T10:14:10;101825.03;;;19.17;55.59
30302;BME280;17111;52.130;5.028;2023-11-21T10:16:40;101829.72;;;19.15;56.06
30302;BME280;17111;52.130;5.028;2023-11-21T10:19:10;101847.53;;;19.16;56.07
30302;BME280;17111;52.130;5.028;2023-11-21T10:21:39;101855.31;;;19.19;56.05
30302;BME280;17111;52.130;5.028;2023-11-21T10:24:06;101852.38;;;19.22;56.31
30302;BME280;17111;52.130;5.028;2023-11-21T10:26:33;101858.91;;;19.30;55.87
30302;BME280;17111;52.130;5.028;2023-11-21T10:29:16;101864.72;;;19.35;56.20
30302;BME280;17111;52.130;5.028;2023-11-21T10:31:50;101865.97;;;19.40;56.34
30302;BME280;17111;52.130;5.028;2023-11-21T10:34:19;101871.66;;;19.47;55.90
30302;BME280;17111;52.130;5.028;2023-11-21T10:36:46;101879.16;;;19.53;56.18
30302;BME280;17111;52.130;5.028;2023-11-21T10:39:20;101876.78;;;19.60;56.09
30302;BME280;17111;52.130;5.028;2023-11-21T10:41:48;101877.25;;;19.65;55.84
30302;BME280;17111;52.130;5.028;2023-11-21T10:44:16;101881.34;;;19.69;56.37
30302;BME280;17111;52.130;5.028;2023-11-21T10:46:51;101882.94;;;19.71;56.52
30302;BME280;17111;52.130;5.028;2023-11-21T10:49:20;101889.88;;;19.74;55.49
30302;BME280;17111;52.130;5.028;2023-11-21T10:51:47;101894.25;;;19.75;55.51
30302;BME280;17111;52.130;5.028;2023-11-21T10:54:22;101906.03;;;19.74;56.17
30302;BME280;17111;52.130;5.028;2023-11-21T10:56:50;101908.84;;;19.72;55.89
30302;BME280;17111;52.130;5.028;2023-11-21T10:59:19;101910.81;;;19.70;56.02
30302;BME280;17111;52.130;5.028;2023-11-21T11:01:47;101911.94;;;19.68;55.87
30302;BME280;17111;52.130;5.028;2023-11-21T11:04:22;101908.69;;;19.64;55.65
30302;BME280;17111;52.130;5.028;2023-11-21T11:06:54;101912.50;;;19.62;55.45
30302;BME280;17111;52.130;5.028;2023-11-21T11:09:23;101917.28;;;19.58;56.04
30302;BME280;17111;52.130;5.028;2023-11-21T11:11:51;101919.38;;;19.55;55.44
30302;BME280;17111;52.130;5.028;2023-11-21T11:14:18;101925.88;;;19.52;55.66
30302;BME280;17111;52.130;5.028;2023-11-21T11:16:46;101920.91;;;19.47;56.21
30302;BME280;17111;52.130;5.028;2023-11-21T11:19:15;101919.34;;;19.45;56.52
30302;BME280;17111;52.130;5.028;2023-11-21T11:35:04;101927.47;;;19.24;56.58
30302;BME280;17111;52.130;5.028;2023-11-21T11:37:33;101932.00;;;19.23;56.57
30302;BME280;17111;52.130;5.028;2023-11-21T11:40:00;101931.28;;;19.21;56.86
30302;BME280;17111;52.130;5.028;2023-11-21T11:42:27;101931.41;;;19.20;56.61
30302;BME280;17111;52.130;5.028;2023-11-21T11:44:53;101933.41;;;19.18;56.52
30302;BME280;17111;52.130;5.028;2023-11-21T11:47:29;101941.72;;;19.15;56.48
30302;BME280;17111;52.130;5.028;2023-11-21T11:50:08;101937.47;;;19.12;56.75
30302;BME280;17111;52.130;5.028;2023-11-21T11:52:45;101951.06;;;19.11;56.73
30302;BME280;17111;52.130;5.028;2023-11-21T11:55:16;101954.00;;;19.08;57.06
30302;BME280;17111;52.130;5.028;2023-11-21T11:57:51;101948.03;;;19.04;57.33
30302;BME280;17111;52.130;5.028;2023-11-21T12:00:43;101953.56;;;19.03;57.02
30302;BME280;17111;52.130;5.028;2023-11-21T12:03:13;101953.56;;;19.03;57.62
30302;BME280;17111;52.130;5.028;2023-11-21T12:05:40;101953.41;;;19.04;57.07
30302;BME280;17111;52.130;5.028;2023-11-21T12:08:08;101954.16;;;19.06;57.05
30302;BME280;17111;52.130;5.028;2023-11-21T12:10:36;101955.69;;;19.09;57.15
30302;BME280;17111;52.130;5.028;2023-11-21T12:13:08;101960.66;;;19.13;56.84
30302;BME280;17111;52.130;5.028;2023-11-21T12:15:35;101960.28;;;19.18;56.83
30302;BME280;17111;52.130;5.028;2023-11-21T12:18:04;101965.25;;;19.22;56.45
30302;BME280;17111;52.130;5.028;2023-11-21T12:20:32;101969.22;;;19.28;57.03
30302;BME280;17111;52.130;5.028;2023-11-21T12:23:05;101980.31;;;19.35;56.70
30302;BME280;17111;52.130;5.028;2023-11-21T12:25:32;101979.75;;;19.41;56.50
30302;BME280;17111;52.130;5.028;2023-11-21T12:28:00;101982.91;;;19.46;57.21
30302;BME280;17111;52.130;5.028;2023-11-21T12:30:28;101984.59;;;19.47;56.74
30302;BME280;17111;52.130;5.028;2023-11-21T12:32:59;101994.22;;;19.49;56.36
30302;BME280;17111;52.130;5.028;2023-11-21T12:35:28;101994.94;;;19.52;56.40
30302;BME280;17111;52.130;5.028;2023-11-21T12:37:56;101999.47;;;19.51;56.59
30302;BME280;17111;52.130;5.028;2023-11-21T12:40:26;102002.44;;;19.48;56.18
30302;BME280;17111;52.130;5.028;2023-11-21T12:42:55;101996.34;;;19.46;56.19
30302;BME280;17111;52.130;5.028;2023-11-21T12:45:27;101999.31;;;19.43;56.72
30302;BME280;17111;52.130;5.028;2023-11-21T12:48:00;102010.31;;;19.40;56.40
30302;BME280;17111;52.130;5.028;2023-11-21T12:50:30;102003.38;;;19.37;56.73
30302;BME280;17111;52.130;5.028;2023-11-21T12:53:07;102005.34;;;19.35;56.52
30302;BME280;17111;52.130;5.028;2023-11-21T12:55:39;102014.53;;;19.33;56.62
30302;BME280;17111;52.130;5.028;2023-11-21T12:58:08;102013.94;;;19.29;57.13
30302;BME280;17111;52.130;5.028;2023-11-21T13:00:44;102019.47;;;19.28;57.13
30302;BME280;17111;52.130;5.028;2023-11-21T13:03:14;102019.72;;;19.24;56.77
30302;BME280;17111;52.130;5.028;2023-11-21T13:05:48;102027.91;;;19.23;56.81
30302;BME280;17111;52.130;5.028;2023-11-21T13:08:19;102032.56;;;19.21;57.44